Time;durP1;ratioP1;P1;durP2;ratioP2;P2;SDS_P1;SDS_P2;PMS_P1;PMS_P2;Temp;Humidity;BMP_temperature;BMP_pressure;BME280_temperature;BME280_humidity;BME280_pressure;Samples;Min_cycle;Max_cycle;Signal;HPM_P1;HPM_P2
2021/07/16 00:00:16;;;;;;;24.23;7.15;;;;;;;21.11;77.69;101480.53;10113347;28;20043;-69
2021/07/16 00:05:13;;;;;;;18.60;7.50;;;;;;;21.07;77.58;101479.66;10113016;28;20043;-70
2021/07/16 00:10:13;;;;;;;22.75;7.97;;;;;;;21.00;77.85;101474.00;10109241;28;20054;-68
2021/07/16 00:15:11;;;;;;;18.95;7.18;;;;;;;21.00;77.30;101485.13;10115983;28;20043;-68
2021/07/16 00:20:10;;;;;;;21.17;7.65;;;;;;;20.97;77.49;101491.41;10112975;28;20081;-68
2021/07/16 00:25:08;;;;;;;18.15;6.75;;;;;;;20.93;77.70;101496.09;10118406;28;20146;-71
2021/07/16 00:30:07;;;;;;;19.00;7.65;;;;;;;20.91;77.09;101490.13;10105905;28;20074;-72
2021/07/16 00:35:05;;;;;;;17.35;7.10;;;;;;;20.92;77.35;101491.75;10114661;28;20078;-71
2021/07/16 00:40:06;;;;;;;27.60;8.60;;;;;;;20.85;77.33;101494.38;10102760;28;20100;-71
2021/07/16 00:45:05;;;;;;;17.42;7.00;;;;;;;20.83;77.30;101494.75;10110627;28;20043;-71
2021/07/16 00:50:04;;;;;;;25.40;7.32;;;;;;;20.80;76.62;101487.16;10092028;28;20051;-72
2021/07/16 00:55:02;;;;;;;17.38;6.93;;;;;;;20.70;76.92;101488.56;10113047;28;20091;-70
2021/07/16 00:59:58;;;;;;;24.75;7.15;;;;;;;20.63;76.67;101493.16;10113961;28;20078;-72
2021/07/16 01:04:55;;;;;;;16.90;7.15;;;;;;;20.60;76.57;101486.38;10103736;28;20103;-71
2021/07/16 01:09:52;;;;;;;23.33;7.68;;;;;;;20.48;76.47;101492.88;10105054;28;20109;-72
2021/07/16 01:14:49;;;;;;;20.73;7.13;;;;;;;20.38;76.74;101502.59;10115682;28;20548;-72
2021/07/16 01:19:55;;;;;;;17.80;6.07;;;;;;;20.34;76.80;101503.69;10106833;28;20058;-73
2021/07/16 01:24:51;;;;;;;20.17;6.78;;;;;;;20.27;76.80;101504.34;10108855;28;20081;-71
2021/07/16 01:29:48;;;;;;;18.92;6.47;;;;;;;20.19;77.03;101491.50;10102295;28;20081;-71
2021/07/16 01:34:46;;;;;;;22.02;6.20;;;;;;;20.15;77.16;101507.28;10105778;28;20126;-70
2021/07/16 01:39:43;;;;;;;21.30;6.50;;;;;;;20.06;76.92;101509.47;10110667;28;20573;-70
2021/07/16 01:44:42;;;;;;;21.20;6.20;;;;;;;20.00;77.16;101510.91;10106999;28;20043;-70
2021/07/16 01:49:38;;;;;;;21.27;6.05;;;;;;;19.90;77.33;101507.53;10100725;28;20472;-70
2021/07/16 01:54:36;;;;;;;25.55;6.07;;;;;;;19.87;77.50;101507.47;10113678;28;20501;-71
2021/07/16 01:59:32;;;;;;;20.92;6.47;;;;;;;19.90;77.34;101506.72;10083092;28;20692;-71
2021/07/16 02:04:29;;;;;;;17.45;5.10;;;;;;;19.92;76.94;101516.31;10107959;28;20074;-70
2021/07/16 02:09:26;;;;;;;21.92;6.47;;;;;;;19.86;76.58;101517.75;10118202;28;20394;-70
2021/07/16 02:14:22;;;;;;;18.60;6.47;;;;;;;19.71;76.94;101518.59;10112866;28;20085;-69
2021/07/16 02:19:19;;;;;;;18.65;5.38;;;;;;;19.62;76.96;101518.75;10108363;28;20050;-72
2021/07/16 02:24:15;;;;;;;21.05;5.80;;;;;;;19.62;77.21;101517.94;10087015;28;20507;-70
2021/07/16 02:29:12;;;;;;;17.58;5.25;;;;;;;19.60;77.13;101521.06;10100928;28;20109;-72
2021/07/16 02:34:09;;;;;;;17.52;5.43;;;;;;;19.58;76.99;101533.69;10102379;28;20119;-68
2021/07/16 02:39:05;;;;;;;22.30;5.93;;;;;;;19.57;77.05;101543.19;10108967;28;20121;-69
2021/07/16 02:44:03;;;;;;;19.33;5.53;;;;;;;19.58;76.77;101542.03;10099223;28;20039;-72
2021/07/16 02:48:59;;;;;;;19.40;5.35;;;;;;;19.57;76.65;101554.28;10097487;28;20050;-69
2021/07/16 02:53:56;;;;;;;14.80;5.55;;;;;;;19.50;76.82;101550.19;10108577;28;20046;-70
2021/07/16 02:58:52;;;;;;;18.35;5.07;;;;;;;19.49;77.02;101554.09;10102164;28;20051;-71
2021/07/16 03:03:49;;;;;;;21.83;5.97;;;;;;;19.40;77.14;101556.28;10099790;28;20039;-71
2021/07/16 03:08:46;;;;;;;21.23;5.75;;;;;;;19.33;77.15;101562.44;10108856;28;20101;-70
2021/07/16 03:13:42;;;;;;;20.77;6.35;;;;;;;19.21;77.73;101561.69;10105120;28;20046;-71
2021/07/16 03:18:39;;;;;;;17.25;5.80;;;;;;;19.19;77.67;101573.13;10106911;28;20493;-70
2021/07/16 03:23:35;;;;;;;17.98;6.53;;;;;;;19.16;77.71;101578.59;10108700;28;20078;-71
2021/07/16 03:28:31;;;;;;;22.10;7.80;;;;;;;19.13;78.11;101578.16;10095025;28;20055;-70
2021/07/16 03:33:30;;;;;;;23.13;7.32;;;;;;;19.08;78.14;101583.97;10105951;28;20081;-70
2021/07/16 03:38:26;;;;;;;19.35;7.65;;;;;;;19.11;77.83;101577.69;10109255;28;20051;-68
2021/07/16 03:43:23;;;;;;;22.55;7.13;;;;;;;19.13;77.67;101569.84;10099469;28;20073;-70
2021/07/16 03:48:19;;;;;;;21.15;6.90;;;;;;;19.04;77.89;101571.97;10099431;28;20133;-70
2021/07/16 03:53:16;;;;;;;19.10;7.35;;;;;;;18.98;78.18;101570.59;10104098;28;20109;-70
2021/07/16 03:58:12;;;;;;;20.05;7.20;;;;;;;19.05;78.11;101590.22;10100842;28;20574;-68
2021/07/16 04:03:09;;;;;;;22.38;7.93;;;;;;;19.00;78.21;101582.13;10103315;28;20500;-68
2021/07/16 04:08:07;;;;;;;24.30;8.10;;;;;;;18.98;77.94;101587.22;10109293;28;20066;-69
2021/07/16 04:13:09;;;;;;;24.48;7.55;;;;;;;19.03;77.92;101587.00;10119404;28;20096;-68
2021/07/16 04:18:07;;;;;;;20.52;7.47;;;;;;;19.06;77.90;101586.28;10107655;28;20726;-67
2021/07/16 04:23:04;;;;;;;19.60;7.55;;;;;;;19.00;77.86;101582.13;10096025;28;20133;-68
2021/07/16 04:28:02;;;;;;;20.67;5.88;;;;;;;19.00;77.68;101600.75;10080205;28;20465;-69
2021/07/16 04:33:01;;;;;;;26.13;6.97;;;;;;;19.00;77.51;101604.31;10098481;28;20054;-69
2021/07/16 04:37:58;;;;;;;24.85;6.78;;;;;;;18.99;77.75;101613.78;10109353;28;20043;-68
2021/07/16 04:42:56;;;;;;;23.67;6.82;;;;;;;19.00;77.82;101626.47;10094704;28;20047;-69
2021/07/16 04:47:53;;;;;;;27.67;7.45;;;;;;;18.91;78.06;101612.81;10090273;28;20560;-69
2021/07/16 04:52:50;;;;;;;25.05;6.43;;;;;;;18.90;78.10;101624.22;10091598;28;20540;-68
2021/07/16 04:57:48;;;;;;;20.60;6.57;;;;;;;18.83;78.26;101618.47;10091887;28;20043;-69
2021/07/16 05:02:44;;;;;;;23.85;6.80;;;;;;;18.96;77.98;101628.38;10088528;28;20075;-66
2021/07/16 05:07:41;;;;;;;27.13;6.53;;;;;;;18.95;77.41;101623.97;10106188;28;20051;-67
2021/07/16 05:12:39;;;;;;;24.67;6.55;;;;;;;18.88;77.25;101612.69;10088529;28;20134;-69
2021/07/16 05:17:37;;;;;;;21.17;5.97;;;;;;;19.02;77.59;101624.16;10104995;28;20038;-70
2021/07/16 05:22:34;;;;;;;25.67;6.75;;;;;;;18.98;77.10;101633.53;10102186;28;20509;-67
2021/07/16 05:27:30;;;;;;;20.25;7.53;;;;;;;18.89;77.59;101630.91;10105915;28;20185;-68
2021/07/16 05:32:27;;;;;;;20.98;6.50;;;;;;;19.04;77.09;101632.94;10106451;28;20410;-69
2021/07/16 05:37:24;;;;;;;33.70;8.30;;;;;;;19.11;77.40;101635.09;10101975;28;20098;-69
2021/07/16 05:42:20;;;;;;;27.90;6.68;;;;;;;19.20;76.80;101643.25;10089001;28;20079;-67
2021/07/16 05:47:17;;;;;;;20.90;5.93;;;;;;;19.11;76.76;101655.31;10085771;28;20138;-67
2021/07/16 05:52:13;;;;;;;20.88;5.85;;;;;;;19.19;76.48;101661.03;10092137;28;20106;-68
2021/07/16 05:57:10;;;;;;;16.42;5.82;;;;;;;19.11;76.61;101655.31;10096538;28;20075;-69
2021/07/16 06:02:06;;;;;;;30.83;8.15;;;;;;;19.05;76.62;101662.28;10096059;28;20039;-68
2021/07/16 06:07:03;;;;;;;26.25;6.30;;;;;;;18.94;77.05;101669.47;10088441;28;20461;-67
2021/07/16 06:12:00;;;;;;;27.55;7.75;;;;;;;18.95;77.78;101656.41;10103383;28;20078;-68
2021/07/16 06:16:57;;;;;;;19.80;6.60;;;;;;;19.12;77.25;101662.47;10105733;28;20806;-69
2021/07/16 06:21:55;;;;;;;25.13;6.70;;;;;;;18.95;77.60;101673.84;10107576;28;20047;-67
2021/07/16 06:26:52;;;;;;;27.75;7.93;;;;;;;18.96;77.45;101681.03;10088863;28;20061;-68
2021/07/16 06:31:48;;;;;;;23.17;6.97;;;;;;;19.04;77.67;101677.28;10104063;28;20087;-67
2021/07/16 06:36:45;;;;;;;22.10;5.75;;;;;;;19.18;77.61;101681.63;10102644;28;20105;-66
2021/07/16 06:41:42;;;;;;;23.77;7.20;;;;;;;19.26;77.48;101686.19;10106995;28;20660;-68
2021/07/16 06:46:38;;;;;;;26.63;7.00;;;;;;;19.43;76.82;101677.56;10102431;28;20074;-69
2021/07/16 06:51:36;;;;;;;21.83;6.57;;;;;;;19.54;76.66;101684.22;10103446;28;20039;-67
2021/07/16 06:56:35;;;;;;;22.10;6.20;;;;;;;19.75;76.09;101689.53;10106093;28;20492;-68
2021/07/16 07:01:31;;;;;;;23.17;6.63;;;;;;;19.92;75.48;101699.47;10102304;28;20473;-68
2021/07/16 07:06:29;;;;;;;21.95;6.38;;;;;;;20.13;75.44;101706.72;10095066;28;20614;-70
2021/07/16 07:11:25;;;;;;;21.65;6.80;;;;;;;20.31;74.56;101710.75;10102066;28;20130;-68
2021/07/16 07:16:22;;;;;;;18.77;6.38;;;;;;;20.47;74.63;101712.66;10092325;28;20089;-68
2021/07/16 07:21:19;;;;;;;23.40;6.57;;;;;;;20.51;73.55;101710.78;10085061;28;20051;-67
2021/07/16 07:26:15;;;;;;;19.67;6.78;;;;;;;20.50;72.65;101723.06;10092932;28;20054;-67
2021/07/16 07:31:12;;;;;;;22.75;6.53;;;;;;;20.62;73.75;101716.63;10093930;28;20163;-68
2021/07/16 07:36:08;;;;;;;19.40;6.60;;;;;;;20.74;73.79;101720.06;10092543;28;20501;-67
2021/07/16 07:41:05;;;;;;;24.50;6.95;;;;;;;21.00;73.50;101725.03;10103726;28;20046;-67
2021/07/16 07:46:01;;;;;;;17.77;6.50;;;;;;;21.14;72.46;101741.19;10102226;28;20043;-67
2021/07/16 07:50:58;;;;;;;20.15;6.43;;;;;;;21.14;72.37;101734.81;10101776;28;20117;-68
2021/07/16 07:55:55;;;;;;;26.40;7.30;;;;;;;21.17;72.03;101723.78;10111218;28;20086;-68
2021/07/16 08:00:51;;;;;;;19.48;6.47;;;;;;;21.14;72.25;101724.50;10109769;28;20101;-67
2021/07/16 08:05:48;;;;;;;23.15;6.35;;;;;;;21.20;71.91;101736.94;10114804;28;20055;-66
2021/07/16 08:10:44;;;;;;;14.85;5.03;;;;;;;21.30;71.65;101745.88;10108820;28;20093;-67
2021/07/16 08:15:41;;;;;;;19.40;6.18;;;;;;;21.50;71.96;101753.06;10111060;28;20051;-67
2021/07/16 08:20:37;;;;;;;21.98;6.03;;;;;;;21.56;71.62;101762.72;10107287;28;20456;-70
2021/07/16 08:25:35;;;;;;;24.85;6.63;;;;;;;21.37;70.74;101765.47;10112622;28;20047;-67
2021/07/16 08:30:31;;;;;;;19.65;6.13;;;;;;;21.46;70.48;101757.75;10100974;28;20050;-66
2021/07/16 08:35:28;;;;;;;17.98;5.47;;;;;;;21.72;70.32;101747.91;10106953;28;20042;-69
2021/07/16 08:40:29;;;;;;;19.92;6.10;;;;;;;21.90;69.71;101748.22;10102730;28;20047;-67
2021/07/16 08:45:26;;;;;;;21.75;5.88;;;;;;;22.04;69.93;101749.28;10105939;28;20090;-66
2021/07/16 08:50:23;;;;;;;21.17;6.05;;;;;;;22.13;69.03;101745.44;10110745;28;20191;-71
2021/07/16 08:55:22;;;;;;;23.63;5.80;;;;;;;22.10;68.01;101744.22;10103430;28;20047;-66
2021/07/16 09:00:18;;;;;;;17.20;5.53;;;;;;;22.21;68.03;101753.59;10106355;28;20082;-66
2021/07/16 09:05:15;;;;;;;22.88;5.05;;;;;;;22.32;66.82;101759.31;10116613;28;20078;-69
2021/07/16 09:10:12;;;;;;;19.92;4.13;;;;;;;22.44;65.83;101761.09;10108069;28;20485;-67
2021/07/16 09:15:14;;;;;;;15.73;4.80;;;;;;;22.54;65.60;101749.31;10093863;28;20055;-68
2021/07/16 09:20:23;;;;;;;16.90;4.93;;;;;;;22.64;65.30;101750.66;10110063;28;20074;-67
2021/07/16 09:25:23;;;;;;;17.67;4.78;;;;;;;22.85;65.49;101764.09;10109546;28;20078;-67
2021/07/16 09:30:22;;;;;;;19.83;5.35;;;;;;;23.00;65.03;101765.09;10106577;28;20131;-66
2021/07/16 09:35:20;;;;;;;19.27;4.80;;;;;;;23.20;65.13;101761.00;10102829;28;20079;-67
2021/07/16 09:40:25;;;;;;;13.63;4.82;;;;;;;23.52;63.96;101771.75;10109278;28;20078;-67
2021/07/16 09:45:21;;;;;;;11.27;4.25;;;;;;;23.56;62.38;101769.81;10104204;28;20051;-66
2021/07/16 09:50:23;;;;;;;19.67;4.82;;;;;;;23.66;62.70;101771.91;10106607;28;20062;-67
2021/07/16 09:55:21;;;;;;;11.10;3.90;;;;;;;23.94;61.73;101762.22;10105779;28;20134;-66
2021/07/16 10:00:18;;;;;;;16.20;5.32;;;;;;;24.06;61.18;101769.53;10099457;28;20074;-66
2021/07/16 10:05:16;;;;;;;15.65;4.50;;;;;;;24.54;61.35;101763.94;10107110;28;20536;-68
2021/07/16 10:10:20;;;;;;;16.08;5.00;;;;;;;24.62;60.00;101750.81;10099783;28;20043;-67
2021/07/16 10:15:21;;;;;;;16.70;4.57;;;;;;;24.99;59.00;101754.25;10092285;28;20140;-68
2021/07/16 10:20:19;;;;;;;15.40;5.07;;;;;;;25.59;56.80;101752.06;10086885;28;20050;-70
2021/07/16 10:25:17;;;;;;;12.95;4.25;;;;;;;26.22;56.12;101756.19;10091911;28;20046;-70
2021/07/16 10:30:16;;;;;;;12.80;4.35;;;;;;;27.01;53.76;101756.03;10085299;28;20196;-67
2021/07/16 10:35:19;;;;;;;11.55;4.68;;;;;;;27.84;52.04;101762.06;10082129;28;20106;-67
2021/07/16 10:40:36;;;;;;;14.82;3.88;;;;;;;28.22;51.67;101769.78;10091707;28;20054;-69
2021/07/16 10:45:37;;;;;;;15.50;4.72;;;;;;;28.27;50.62;101772.97;10091783;28;20050;-69
2021/07/16 10:50:38;;;;;;;22.90;4.95;;;;;;;28.03;51.50;101768.34;10088961;28;20775;-69
2021/07/16 10:55:37;;;;;;;12.95;4.15;;;;;;;28.32;52.34;101778.16;10086681;28;20118;-69
2021/07/16 11:00:37;;;;;;;17.90;5.25;;;;;;;28.36;50.86;101785.75;10096658;28;20047;-68
2021/07/16 11:05:36;;;;;;;13.05;5.05;;;;;;;28.03;50.70;101790.84;10094009;28;20055;-68
2021/07/16 11:10:59;;;;;;;19.42;5.10;;;;;;;27.48;52.62;101787.53;10111807;28;20046;-70
2021/07/16 11:15:55;;;;;;;15.93;5.10;;;;;;;28.25;50.83;101791.47;10115195;28;20078;-69
2021/07/16 11:20:52;;;;;;;15.32;4.75;;;;;;;28.89;48.67;101795.69;10114515;28;20114;-68
2021/07/16 11:25:50;;;;;;;19.20;4.72;;;;;;;29.35;47.64;101795.16;10120775;28;20050;-66
2021/07/16 11:31:06;;;;;;;17.17;4.70;;;;;;;29.63;47.30;101803.66;10115068;28;20047;-68
2021/07/16 11:36:03;;;;;;;15.68;4.07;;;;;;;29.65;46.33;101795.59;10118006;28;20476;-70
2021/07/16 11:41:08;;;;;;;18.02;5.22;;;;;;;29.56;46.47;101801.72;10117360;28;20508;-67
2021/07/16 11:46:04;;;;;;;10.50;4.70;;;;;;;29.88;45.72;101804.13;10121364;28;20130;-68
2021/07/16 11:51:06;;;;;;;16.65;4.50;;;;;;;30.20;45.28;101797.19;10118371;28;20113;-65
2021/07/16 11:56:11;;;;;;;17.63;5.65;;;;;;;29.36;47.12;101801.63;10119807;28;20603;-70
2021/07/16 12:01:11;;;;;;;21.55;5.10;;;;;;;28.79;48.56;101802.25;10115747;28;20133;-68
2021/07/16 12:06:08;;;;;;;23.05;6.00;;;;;;;28.46;49.86;101808.19;10120606;28;20034;-66
2021/07/16 12:11:05;;;;;;;20.20;5.50;;;;;;;28.25;50.93;101808.34;10101649;28;20074;-66
2021/07/16 12:16:04;;;;;;;13.32;4.53;;;;;;;28.19;50.86;101810.78;10124548;28;20038;-67
2021/07/16 12:21:17;;;;;;;18.20;6.20;;;;;;;27.78;51.56;101803.03;10122492;28;20065;-66
2021/07/16 12:26:21;;;;;;;16.80;6.47;;;;;;;27.76;52.60;101801.81;10106604;28;20517;-71
2021/07/16 12:31:22;;;;;;;16.45;5.00;;;;;;;27.82;52.91;101815.03;10116448;28;20501;-68
2021/07/16 12:36:27;;;;;;;18.27;6.00;;;;;;;27.78;53.56;101819.91;10113426;28;20046;-66
2021/07/16 12:41:25;;;;;;;15.00;4.40;;;;;;;27.81;53.41;101819.06;10106661;28;20047;-66
2021/07/16 12:46:29;;;;;;;16.38;5.18;;;;;;;27.88;52.57;101824.66;10105989;28;20047;-67
2021/07/16 12:51:28;;;;;;;17.55;5.57;;;;;;;27.59;52.86;101823.97;10110276;28;20050;-67
2021/07/16 12:56:28;;;;;;;13.05;4.82;;;;;;;27.44;53.03;101823.28;10112131;28;20129;-69
2021/07/16 13:01:27;;;;;;;17.95;5.20;;;;;;;27.55;53.22;101820.41;10107339;28;20501;-72
2021/07/16 13:06:29;;;;;;;13.65;4.63;;;;;;;27.56;53.23;101827.63;10112229;28;20142;-66
2021/07/16 13:11:25;;;;;;;18.17;4.50;;;;;;;27.72;53.72;101835.56;10116789;28;20051;-73
2021/07/16 13:16:22;;;;;;;14.25;4.57;;;;;;;27.97;53.89;101821.41;10111501;28;20096;-70
2021/07/16 13:21:20;;;;;;;22.70;5.07;;;;;;;27.99;53.60;101829.41;10113552;28;20050;-68
2021/07/16 13:26:27;;;;;;;15.23;4.60;;;;;;;28.05;54.00;101827.75;10112066;28;20043;-68
2021/07/16 13:31:24;;;;;;;14.60;5.00;;;;;;;27.99;52.87;101829.41;10093230;28;20702;-68
2021/07/16 13:36:20;;;;;;;20.40;6.07;;;;;;;27.75;53.53;101829.13;10092194;28;20525;-68
2021/07/16 13:41:17;;;;;;;16.05;4.78;;;;;;;27.78;54.66;101835.94;10087870;28;20496;-68
2021/07/16 13:46:13;;;;;;;17.25;5.22;;;;;;;27.36;55.37;101832.91;10094351;28;20105;-69
2021/07/16 13:51:10;;;;;;;17.00;5.28;;;;;;;27.47;54.89;101828.06;10089304;28;20130;-67
2021/07/16 13:56:06;;;;;;;22.00;5.32;;;;;;;27.48;55.16;101829.69;10099144;28;20077;-66
2021/07/16 14:01:03;;;;;;;18.00;5.32;;;;;;;27.24;55.12;101830.56;10105384;28;20046;-65
2021/07/16 14:05:59;;;;;;;15.15;5.50;;;;;;;27.27;55.31;101841.00;10110679;28;20046;-69
2021/07/16 14:10:56;;;;;;;16.10;5.88;;;;;;;27.26;55.75;101839.38;10108093;28;20039;-71
2021/07/16 14:15:53;;;;;;;19.65;6.05;;;;;;;26.93;55.73;101833.03;10117680;28;20459;-69
2021/07/16 14:20:49;;;;;;;25.73;5.97;;;;;;;27.12;55.87;101840.19;10089354;28;20043;-72
2021/07/16 14:25:46;;;;;;;18.50;5.25;;;;;;;27.29;55.09;101832.94;10092559;28;20090;-69
2021/07/16 14:30:43;;;;;;;18.73;5.00;;;;;;;27.49;54.63;101824.84;10090691;28;20077;-67
2021/07/16 14:35:40;;;;;;;20.38;5.97;;;;;;;27.49;54.71;101828.44;10085549;28;20071;-71
2021/07/16 14:40:37;;;;;;;23.65;6.75;;;;;;;27.35;54.97;101836.94;10086358;28;20105;-72
2021/07/16 14:45:34;;;;;;;18.45;5.38;;;;;;;27.43;55.45;101830.09;10093512;28;20050;-70
2021/07/16 14:50:30;;;;;;;17.75;5.10;;;;;;;27.37;54.22;101828.13;10089942;28;20043;-72
2021/07/16 14:55:27;;;;;;;19.63;5.53;;;;;;;27.40;54.27;101832.91;10086548;28;20070;-70
2021/07/16 15:00:25;;;;;;;17.00;5.13;;;;;;;27.26;54.07;101830.97;10090054;28;21006;-68
2021/07/16 15:05:22;;;;;;;16.13;4.30;;;;;;;27.37;54.18;101834.53;10094351;28;20106;-69
2021/07/16 15:10:18;;;;;;;18.58;6.40;;;;;;;27.38;53.80;101836.13;10094204;28;20047;-69
2021/07/16 15:15:15;;;;;;;17.55;5.47;;;;;;;27.25;54.42;101843.41;10093734;28;20050;-71
2021/07/16 15:20:12;;;;;;;24.70;5.68;;;;;;;27.18;53.96;101832.19;10096688;28;20129;-70
2021/07/16 15:25:09;;;;;;;19.02;5.18;;;;;;;27.34;54.29;101838.16;10103417;28;20046;-67
2021/07/16 15:30:06;;;;;;;19.45;5.07;;;;;;;27.36;53.14;101844.16;10111749;28;20039;-69
2021/07/16 15:35:12;;;;;;;18.33;5.05;;;;;;;27.63;53.13;101841.63;10087001;28;20508;-68
2021/07/16 15:40:10;;;;;;;18.02;4.90;;;;;;;27.57;52.54;101848.06;10106212;28;20043;-69
2021/07/16 15:45:07;;;;;;;17.40;4.47;;;;;;;27.44;51.88;101856.16;10109911;28;20046;-70
2021/07/16 15:50:09;;;;;;;16.67;4.50;;;;;;;27.36;51.27;101848.97;10090854;28;20062;-69
2021/07/16 15:55:13;;;;;;;19.52;4.25;;;;;;;27.58;51.30;101838.47;10092826;28;20094;-68
2021/07/16 16:00:11;;;;;;;18.48;4.78;;;;;;;27.68;51.53;101837.59;10102890;28;20469;-68
2021/07/16 16:05:12;;;;;;;15.43;4.63;;;;;;;27.66;49.99;101840.00;10099770;28;20565;-70
2021/07/16 16:10:10;;;;;;;15.55;3.85;;;;;;;28.23;48.99;101839.69;10100658;28;20456;-69
2021/07/16 16:15:09;;;;;;;19.02;5.10;;;;;;;28.70;47.11;101851.38;10098757;28;20559;-75
2021/07/16 16:20:07;;;;;;;16.63;4.68;;;;;;;28.58;46.91;101837.81;10096577;28;20046;-69
2021/07/16 16:25:06;;;;;;;13.73;3.80;;;;;;;27.99;47.85;101840.66;10108512;28;20059;-71
2021/07/16 16:30:05;;;;;;;16.35;4.28;;;;;;;27.38;49.23;101836.13;10104611;28;20162;-68
2021/07/16 16:35:11;;;;;;;15.20;4.15;;;;;;;26.65;49.86;101845.91;10100711;28;20113;-69
2021/07/16 16:40:10;;;;;;;17.83;4.97;;;;;;;26.74;49.33;101848.31;10111490;28;20050;-67
2021/07/16 16:45:08;;;;;;;16.73;4.22;;;;;;;27.23;47.16;101845.81;10106946;28;20050;-68
2021/07/16 16:50:07;;;;;;;17.08;4.72;;;;;;;27.39;47.02;101848.97;10108172;28;20086;-68
2021/07/16 16:55:06;;;;;;;17.13;4.28;;;;;;;27.39;46.98;101854.59;10115209;28;20087;-68
2021/07/16 17:00:09;;;;;;;14.52;4.13;;;;;;;27.38;46.34;101858.59;10093618;28;20118;-68
2021/07/16 17:05:13;;;;;;;16.48;4.07;;;;;;;27.19;46.60;101867.44;10097447;28;20158;-69
2021/07/16 17:10:10;;;;;;;11.50;4.38;;;;;;;26.94;47.71;101873.91;10079780;28;20469;-69
2021/07/16 17:15:10;;;;;;;16.02;4.10;;;;;;;26.27;48.47;101880.28;10093112;28;20074;-67
2021/07/16 17:20:07;;;;;;;16.75;4.40;;;;;;;26.03;50.08;101882.66;10094449;28;20072;-67
2021/07/16 17:25:06;;;;;;;20.40;4.88;;;;;;;25.61;53.47;101889.69;10096940;28;20097;-70
2021/07/16 17:30:07;;;;;;;19.00;4.55;;;;;;;25.56;54.15;101892.88;10093008;28;20055;-68
2021/07/16 17:35:05;;;;;;;22.35;6.10;;;;;;;25.73;54.36;101903.34;10096128;28;20109;-70
2021/07/16 17:40:05;;;;;;;22.95;5.20;;;;;;;25.67;53.54;101910.53;10092295;28;20059;-70
2021/07/16 17:45:04;;;;;;;18.55;4.18;;;;;;;25.43;52.73;101911.19;10097671;28;20074;-69
2021/07/16 17:50:01;;;;;;;21.02;5.28;;;;;;;25.60;50.79;101910.50;10090856;28;20059;-68
2021/07/16 17:54:59;;;;;;;14.35;3.83;;;;;;;25.30;51.34;101919.94;10086173;28;20046;-68
2021/07/16 17:59:55;;;;;;;16.80;4.88;;;;;;;25.59;50.29;101917.28;10084284;28;20120;-68
2021/07/16 18:04:52;;;;;;;20.42;5.20;;;;;;;25.98;50.17;101913.88;10094611;28;20070;-69
2021/07/16 18:09:48;;;;;;;17.95;5.38;;;;;;;25.43;51.30;101922.41;10102491;28;20390;-70
2021/07/16 18:14:45;;;;;;;16.58;5.03;;;;;;;25.19;52.00;101925.44;10103882;28;20497;-67
2021/07/16 18:19:41;;;;;;;15.75;5.55;;;;;;;24.83;53.19;101918.75;10092448;28;20498;-67
2021/07/16 18:24:38;;;;;;;15.75;5.45;;;;;;;24.76;52.90;101919.53;10091903;28;20074;-68
2021/07/16 18:29:35;;;;;;;16.23;5.05;;;;;;;24.65;53.78;101926.22;10085905;28;20071;-68
2021/07/16 18:34:32;;;;;;;17.45;5.30;;;;;;;24.63;54.41;101936.97;10088209;28;20050;-69
2021/07/16 18:39:29;;;;;;;24.40;4.43;;;;;;;24.36;54.77;101939.88;10088097;28;20053;-69
2021/07/16 18:44:26;;;;;;;19.75;6.35;;;;;;;23.99;56.64;101943.44;10080737;28;20082;-67
2021/07/16 18:49:22;;;;;;;24.13;6.53;;;;;;;24.02;57.43;101953.88;10085353;28;20101;-68
2021/07/16 18:54:19;;;;;;;19.63;5.00;;;;;;;23.85;57.72;101949.66;10078504;28;20461;-67
2021/07/16 18:59:15;;;;;;;22.42;6.45;;;;;;;23.55;59.12;101952.41;10095643;28;20489;-68
2021/07/16 19:04:13;;;;;;;18.98;6.07;;;;;;;23.38;59.23;101961.34;10081392;28;20071;-67
2021/07/16 19:09:09;;;;;;;20.45;6.13;;;;;;;23.40;60.58;101979.31;10088596;28;20090;-69
2021/07/16 19:14:26;;;;;;;27.60;6.25;;;;;;;23.21;61.50;101977.44;10091624;28;20057;-67
2021/07/16 19:19:24;;;;;;;22.88;6.57;;;;;;;23.07;62.24;101974.44;10087000;28;20067;-67
2021/07/16 19:24:24;;;;;;;26.27;6.53;;;;;;;23.03;62.39;101976.34;10093284;28;20394;-67
2021/07/16 19:29:21;;;;;;;25.17;6.50;;;;;;;22.68;64.86;101975.31;10086922;28;20054;-67
2021/07/16 19:34:18;;;;;;;31.80;7.07;;;;;;;22.69;65.28;101984.47;10091676;28;20055;-70
2021/07/16 19:39:14;;;;;;;31.25;7.72;;;;;;;22.33;67.05;101983.81;10096693;28;20070;-67
2021/07/16 19:44:11;;;;;;;29.58;7.80;;;;;;;22.31;67.34;101991.72;10102287;28;20047;-68
2021/07/16 19:49:07;;;;;;;33.25;8.07;;;;;;;22.31;67.36;101997.31;10112641;28;20066;-67
2021/07/16 19:54:03;;;;;;;30.50;7.68;;;;;;;22.09;68.86;102011.94;10110038;28;20071;-67
2021/07/16 19:59:00;;;;;;;29.60;7.28;;;;;;;21.91;69.33;102001.22;10112610;28;20121;-68
2021/07/16 20:03:57;;;;;;;31.52;8.73;;;;;;;21.91;69.54;102003.19;10116285;28;20109;-67
2021/07/16 20:08:54;;;;;;;34.40;9.15;;;;;;;21.75;70.72;102003.25;10115080;28;20051;-67
2021/07/16 20:13:50;;;;;;;28.95;7.55;;;;;;;21.82;70.29;102009.78;10113805;28;20071;-67
2021/07/16 20:18:47;;;;;;;26.15;7.40;;;;;;;21.68;71.12;102015.03;10100503;28;20082;-67
2021/07/16 20:23:47;;;;;;;34.25;7.60;;;;;;;21.56;71.82;102002.03;10105118;28;20650;-66
2021/07/16 20:28:44;;;;;;;28.30;8.05;;;;;;;21.53;72.10;102013.88;10105873;28;20085;-67
2021/07/16 20:33:41;;;;;;;33.08;8.77;;;;;;;21.50;72.15;102003.47;10112574;28;20051;-66
2021/07/16 20:38:38;;;;;;;29.98;7.45;;;;;;;21.30;71.26;102010.13;10107168;28;20047;-66
2021/07/16 20:43:34;;;;;;;37.60;7.88;;;;;;;21.29;70.60;102008.50;10103383;28;20467;-69
2021/07/16 20:48:32;;;;;;;34.88;7.25;;;;;;;21.21;71.05;102013.91;10110595;28;20043;-69
2021/07/16 20:53:30;;;;;;;36.47;7.40;;;;;;;21.13;71.28;102012.09;10103948;28;20548;-69
2021/07/16 20:58:27;;;;;;;29.48;8.25;;;;;;;20.98;71.64;102021.25;10114336;28;20050;-66
2021/07/16 21:03:24;;;;;;;37.08;8.10;;;;;;;20.83;72.46;102019.25;10096356;28;20115;-67
2021/07/16 21:08:21;;;;;;;35.63;8.50;;;;;;;20.69;72.90;102020.47;10092719;28;20047;-66
2021/07/16 21:13:17;;;;;;;31.15;8.98;;;;;;;20.52;73.75;102021.59;10100904;28;20699;-68
2021/07/16 21:18:15;;;;;;;27.42;7.45;;;;;;;20.67;73.20;102028.38;10096199;28;20050;-67
2021/07/16 21:23:12;;;;;;;30.15;7.65;;;;;;;20.66;73.29;102015.66;10088962;28;20468;-67
2021/07/16 21:28:08;;;;;;;30.02;8.93;;;;;;;20.58;73.82;102014.66;10094756;28;20070;-68
2021/07/16 21:33:08;;;;;;;35.08;8.57;;;;;;;20.56;73.85;102024.47;10080382;28;20053;-67
2021/07/16 21:38:05;;;;;;;23.90;8.00;;;;;;;20.32;75.22;102030.91;10100465;28;20089;-69
2021/07/16 21:43:02;;;;;;;29.33;9.63;;;;;;;20.37;75.21;102020.34;10102361;28;20093;-66
2021/07/16 21:47:58;;;;;;;29.60;8.80;;;;;;;20.38;75.13;102038.66;10099787;28;20046;-69
2021/07/16 21:52:55;;;;;;;38.10;9.63;;;;;;;20.13;76.64;102042.69;10097447;28;20050;-69
2021/07/16 21:57:51;;;;;;;35.55;9.95;;;;;;;20.22;76.16;102035.00;10111839;28;20780;-71
2021/07/16 22:02:49;;;;;;;32.78;9.27;;;;;;;20.27;76.20;102037.53;10106958;28;20536;-69
2021/07/16 22:07:45;;;;;;;36.33;10.82;;;;;;;20.26;76.21;102040.66;10101572;28;20043;-72
2021/07/16 22:12:42;;;;;;;38.70;11.32;;;;;;;20.05;77.94;102030.56;10094935;28;20046;-70
2021/07/16 22:17:39;;;;;;;35.60;10.88;;;;;;;20.19;77.29;102030.16;10100995;28;20126;-71
2021/07/16 22:22:36;;;;;;;40.83;11.63;;;;;;;20.05;78.31;102021.41;10089074;28;20038;-70
2021/07/16 22:27:33;;;;;;;30.58;10.90;;;;;;;20.14;77.74;102022.91;10105542;28;20043;-69
2021/07/16 22:32:29;;;;;;;29.58;10.20;;;;;;;20.21;77.65;102025.03;10097597;28;20051;-69